Portada
METAR-TAF:

METAR-TAF

Aeroports :

Aeroport de Gran Canària

Gran Canària, Espanya

latitud: 27-56N, longitud: 015-23W, altitud: 23 m

Observació

L'informe es va fer fa 27 minuts, a les 11:00 UTC
Vent 19 kt del Nord/Nord-Est
Temperatura 23°C
Humitat 61%
Pressió 1018 hPa
Visibilitat 10 km o més
Escasses núvols a una alçada de 2500 ft
Núvols disperses a una alçada de 4500 ft

METAR: GCLP 141100Z 02019KT 9999 FEW025 SCT045 23/15 Q1018 NOSIG

Hora: 11:27 (11:27 UTC)

Pronòstic

L'informe es va fer fa 3 hores i 27 minuts, a les 08:00 UTC
Pronòstic vàlid del 14 a les 09 UTC al 15 a les 09 UTC
Vent 21 kt del Nord/Nord-Est
Visibilitat 10 km o més
Cel ennuvolat a una alçada de 3000 ft
Probabilitat 30% :
Temporalment
l' 14 a les 17 UTC al 14 a les 23 UTC
pluja

TAF: GCLP 140800Z 1409/1509 02021KT 9999 BKN030 TX24/1414Z TN19/1506Z PROB30 TEMPO 1417/1423 RA

Observacions i pronòstics meteorològics de més de 4000 aeroports (METAR i TAF).

Les estacions disponibles són els punts grocs i vermells al mapa.

Posi el ratolí al punt desitjat per veure el nom de l'estació.

Feu clic per veure les observacions i els pronòstics meteorològics.

Per canviar el mapa: feu clic els botons verds amb una creu de color negre per apropar; al botó verd amb un guió per allunyar la imatge; o en les fletxes verdes per a mapes adjacents.


METAR-TAF: